sensor_id;sensor_type;location;lat;lon;timestamp;pressure;altitude;pressure_sealevel;temperature;humidity
61086;BME280;46967;48.876;2.136;2024-02-21T00:00:28;102355.81;;;33.54;16.73
61086;BME280;46967;48.876;2.136;2024-02-21T00:02:53;102341.03;;;33.85;16.46
61086;BME280;46967;48.876;2.136;2024-02-21T00:05:18;102350.53;;;34.14;16.10
61086;BME280;46967;48.876;2.136;2024-02-21T00:07:44;102356.31;;;34.35;15.84
61086;BME280;46967;48.876;2.136;2024-02-21T00:10:09;102336.44;;;34.44;15.97
61086;BME280;46967;48.876;2.136;2024-02-21T00:12:34;102344.88;;;34.50;15.83
61086;BME280;46967;48.876;2.136;2024-02-21T00:15:00;102338.31;;;34.60;15.57
61086;BME280;46967;48.876;2.136;2024-02-21T00:17:25;102344.19;;;34.56;15.58
61086;BME280;46967;48.876;2.136;2024-02-21T00:19:51;102323.97;;;34.43;15.87
61086;BME280;46967;48.876;2.136;2024-02-21T00:22:16;102313.91;;;34.54;15.85
61086;BME280;46967;48.876;2.136;2024-02-21T00:24:42;102320.66;;;34.58;15.77
61086;BME280;46967;48.876;2.136;2024-02-21T00:27:07;102320.63;;;34.66;15.62
61086;BME280;46967;48.876;2.136;2024-02-21T00:29:32;102325.34;;;34.72;15.43
61086;BME280;46967;48.876;2.136;2024-02-21T00:31:59;102313.72;;;34.63;15.56
61086;BME280;46967;48.876;2.136;2024-02-21T00:34:24;102321.13;;;34.61;15.77
61086;BME280;46967;48.876;2.136;2024-02-21T00:36:50;102307.31;;;34.64;15.58
61086;BME280;46967;48.876;2.136;2024-02-21T00:39:15;102310.53;;;34.60;15.69
61086;BME280;46967;48.876;2.136;2024-02-21T00:41:40;102310.19;;;34.63;15.63
61086;BME280;46967;48.876;2.136;2024-02-21T00:44:06;102317.97;;;34.74;15.60
61086;BME280;46967;48.876;2.136;2024-02-21T00:46:31;102306.31;;;34.74;15.82
61086;BME280;46967;48.876;2.136;2024-02-21T00:48:56;102292.47;;;34.69;15.83
61086;BME280;46967;48.876;2.136;2024-02-21T00:51:22;102276.84;;;34.80;15.41
61086;BME280;46967;48.876;2.136;2024-02-21T00:53:47;102291.50;;;34.94;15.61
61086;BME280;46967;48.876;2.136;2024-02-21T00:56:12;102282.03;;;34.90;15.42
61086;BME280;46967;48.876;2.136;2024-02-21T00:58:38;102271.63;;;34.79;15.80
61086;BME280;46967;48.876;2.136;2024-02-21T01:01:03;102259.50;;;34.50;16.13
61086;BME280;46967;48.876;2.136;2024-02-21T01:03:28;102241.78;;;34.64;15.62
61086;BME280;46967;48.876;2.136;2024-02-21T01:05:54;102237.75;;;34.68;15.90
61086;BME280;46967;48.876;2.136;2024-02-21T01:08:19;102233.69;;;34.64;15.85
61086;BME280;46967;48.876;2.136;2024-02-21T01:10:44;102256.44;;;34.70;16.10
61086;BME280;46967;48.876;2.136;2024-02-21T01:13:10;102246.34;;;34.80;15.72
61086;BME280;46967;48.876;2.136;2024-02-21T01:15:35;102231.50;;;34.84;15.57
61086;BME280;46967;48.876;2.136;2024-02-21T01:18:01;102233.19;;;34.69;15.77
61086;BME280;46967;48.876;2.136;2024-02-21T01:20:26;102249.72;;;34.74;15.95
61086;BME280;46967;48.876;2.136;2024-02-21T01:22:51;102252.06;;;34.85;15.63
61086;BME280;46967;48.876;2.136;2024-02-21T01:25:17;102255.44;;;34.87;15.57
61086;BME280;46967;48.876;2.136;2024-02-21T01:27:42;102235.69;;;34.95;15.46
61086;BME280;46967;48.876;2.136;2024-02-21T01:30:08;102232.63;;;35.06;15.38
61086;BME280;46967;48.876;2.136;2024-02-21T01:32:35;102236.66;;;35.10;15.51
61086;BME280;46967;48.876;2.136;2024-02-21T01:35:01;102224.84;;;35.11;15.61
61086;BME280;46967;48.876;2.136;2024-02-21T01:37:26;102237.63;;;35.17;15.43
61086;BME280;46967;48.876;2.136;2024-02-21T01:39:52;102233.69;;;35.36;15.23
61086;BME280;46967;48.876;2.136;2024-02-21T01:42:17;102225.94;;;34.86;15.68
61086;BME280;46967;48.876;2.136;2024-02-21T01:44:43;102214.72;;;34.49;16.12
61086;BME280;46967;48.876;2.136;2024-02-21T01:47:08;102214.75;;;34.33;16.23
61086;BME280;46967;48.876;2.136;2024-02-21T01:49:33;102213.53;;;34.10;16.56
61086;BME280;46967;48.876;2.136;2024-02-21T01:51:59;102202.59;;;34.53;16.00
61086;BME280;46967;48.876;2.136;2024-02-21T01:54:25;102194.31;;;34.63;15.77
61086;BME280;46967;48.876;2.136;2024-02-21T01:56:53;102188.25;;;34.53;16.18
61086;BME280;46967;48.876;2.136;2024-02-21T01:59:19;102182.41;;;34.41;16.28
61086;BME280;46967;48.876;2.136;2024-02-21T02:01:46;102168.09;;;33.99;16.45
61086;BME280;46967;48.876;2.136;2024-02-21T02:04:12;102157.66;;;34.29;16.13
61086;BME280;46967;48.876;2.136;2024-02-21T02:06:38;102162.84;;;34.47;16.10
61086;BME280;46967;48.876;2.136;2024-02-21T02:09:04;102159.81;;;34.50;16.01
61086;BME280;46967;48.876;2.136;2024-02-21T02:11:31;102166.38;;;34.47;15.90
61086;BME280;46967;48.876;2.136;2024-02-21T02:13:57;102163.06;;;34.37;15.93
61086;BME280;46967;48.876;2.136;2024-02-21T02:16:22;102154.78;;;34.30;15.98
61086;BME280;46967;48.876;2.136;2024-02-21T02:18:47;102170.41;;;34.43;15.95
61086;BME280;46967;48.876;2.136;2024-02-21T02:21:22;102163.38;;;34.42;16.02
61086;BME280;46967;48.876;2.136;2024-02-21T02:23:48;102150.06;;;34.08;16.35
61086;BME280;46967;48.876;2.136;2024-02-21T02:26:13;102149.56;;;34.12;16.32
61086;BME280;46967;48.876;2.136;2024-02-21T02:28:38;102154.09;;;34.45;15.83
61086;BME280;46967;48.876;2.136;2024-02-21T02:31:04;102153.75;;;34.56;15.56
61086;BME280;46967;48.876;2.136;2024-02-21T02:33:29;102140.69;;;34.84;15.59
61086;BME280;46967;48.876;2.136;2024-02-21T02:35:54;102132.63;;;34.76;15.86
61086;BME280;46967;48.876;2.136;2024-02-21T02:38:19;102121.50;;;34.79;15.45
61086;BME280;46967;48.876;2.136;2024-02-21T02:40:45;102124.56;;;34.68;15.82
61086;BME280;46967;48.876;2.136;2024-02-21T02:43:10;102123.41;;;34.54;15.77
61086;BME280;46967;48.876;2.136;2024-02-21T02:45:36;102123.91;;;34.66;15.98
61086;BME280;46967;48.876;2.136;2024-02-21T02:48:01;102112.78;;;34.69;15.89
61086;BME280;46967;48.876;2.136;2024-02-21T02:50:27;102109.59;;;34.57;16.02
61086;BME280;46967;48.876;2.136;2024-02-21T02:52:54;102108.91;;;34.63;16.00
61086;BME280;46967;48.876;2.136;2024-02-21T02:55:20;102096.53;;;34.38;16.11
61086;BME280;46967;48.876;2.136;2024-02-21T02:57:45;102095.66;;;34.54;15.69
61086;BME280;46967;48.876;2.136;2024-02-21T03:00:12;102086.81;;;34.76;15.88
61086;BME280;46967;48.876;2.136;2024-02-21T03:02:39;102075.44;;;34.50;15.87
61086;BME280;46967;48.876;2.136;2024-02-21T03:05:14;102066.84;;;34.54;15.80
61086;BME280;46967;48.876;2.136;2024-02-21T03:07:40;102058.53;;;34.64;15.72
61086;BME280;46967;48.876;2.136;2024-02-21T03:10:06;102048.84;;;34.46;16.05
61086;BME280;46967;48.876;2.136;2024-02-21T03:12:31;102026.06;;;34.01;16.87
61086;BME280;46967;48.876;2.136;2024-02-21T03:14:57;102020.47;;;34.36;15.98
61086;BME280;46967;48.876;2.136;2024-02-21T03:17:22;102019.56;;;34.43;16.02
61086;BME280;46967;48.876;2.136;2024-02-21T03:19:48;102018.72;;;34.43;15.97
61086;BME280;46967;48.876;2.136;2024-02-21T03:22:15;102018.25;;;34.39;16.03
61086;BME280;46967;48.876;2.136;2024-02-21T03:24:41;102014.78;;;34.06;16.28
61086;BME280;46967;48.876;2.136;2024-02-21T03:27:06;102005.16;;;34.11;16.02
61086;BME280;46967;48.876;2.136;2024-02-21T03:29:31;102003.72;;;34.01;16.15
61086;BME280;46967;48.876;2.136;2024-02-21T03:31:57;102013.75;;;34.23;16.06
61086;BME280;46967;48.876;2.136;2024-02-21T03:34:22;102020.13;;;34.30;15.91
61086;BME280;46967;48.876;2.136;2024-02-21T03:36:47;102009.44;;;33.89;16.28
61086;BME280;46967;48.876;2.136;2024-02-21T03:39:13;101996.94;;;34.05;16.29
61086;BME280;46967;48.876;2.136;2024-02-21T03:41:38;102013.66;;;34.48;15.61
61086;BME280;46967;48.876;2.136;2024-02-21T03:44:03;102013.41;;;34.66;15.72
61086;BME280;46967;48.876;2.136;2024-02-21T03:46:30;102015.22;;;34.82;15.58
61086;BME280;46967;48.876;2.136;2024-02-21T03:48:57;102019.53;;;34.91;15.64
61086;BME280;46967;48.876;2.136;2024-02-21T03:51:22;102015.97;;;34.91;15.49
61086;BME280;46967;48.876;2.136;2024-02-21T03:53:47;102008.63;;;35.08;15.39
61086;BME280;46967;48.876;2.136;2024-02-21T03:56:13;102001.00;;;35.11;15.23
61086;BME280;46967;48.876;2.136;2024-02-21T03:58:38;102014.31;;;34.90;15.50
61086;BME280;46967;48.876;2.136;2024-02-21T04:01:03;102010.81;;;34.41;15.73
61086;BME280;46967;48.876;2.136;2024-02-21T04:03:30;102008.59;;;34.53;15.52
61086;BME280;46967;48.876;2.136;2024-02-21T04:05:55;102009.84;;;34.65;15.59
61086;BME280;46967;48.876;2.136;2024-02-21T04:08:21;102000.75;;;34.75;15.79
61086;BME280;46967;48.876;2.136;2024-02-21T04:10:47;101994.38;;;34.68;15.83
61086;BME280;46967;48.876;2.136;2024-02-21T04:13:12;101975.88;;;34.64;15.86
61086;BME280;46967;48.876;2.136;2024-02-21T04:15:37;101965.56;;;34.37;15.75
61086;BME280;46967;48.876;2.136;2024-02-21T04:18:03;101971.25;;;34.42;16.03
61086;BME280;46967;48.876;2.136;2024-02-21T04:20:28;101986.34;;;34.51;15.53
61086;BME280;46967;48.876;2.136;2024-02-21T04:22:54;101998.81;;;34.52;15.80
61086;BME280;46967;48.876;2.136;2024-02-21T04:25:20;101991.75;;;34.51;15.78
61086;BME280;46967;48.876;2.136;2024-02-21T04:27:46;101966.38;;;34.45;15.76
61086;BME280;46967;48.876;2.136;2024-02-21T04:30:12;101954.78;;;34.37;15.83
61086;BME280;46967;48.876;2.136;2024-02-21T04:32:37;101919.13;;;33.87;16.59
61086;BME280;46967;48.876;2.136;2024-02-21T04:35:03;101948.16;;;34.08;16.33
61086;BME280;46967;48.876;2.136;2024-02-21T04:37:28;101977.25;;;34.12;16.01
61086;BME280;46967;48.876;2.136;2024-02-21T04:39:54;101962.41;;;34.25;15.99
61086;BME280;46967;48.876;2.136;2024-02-21T04:42:19;101967.06;;;33.83;16.16
61086;BME280;46967;48.876;2.136;2024-02-21T04:44:45;101986.66;;;34.08;16.10
61086;BME280;46967;48.876;2.136;2024-02-21T04:47:10;101981.88;;;34.35;15.86
61086;BME280;46967;48.876;2.136;2024-02-21T04:49:35;101974.56;;;34.52;15.86
61086;BME280;46967;48.876;2.136;2024-02-21T04:52:01;101970.72;;;34.46;15.71
61086;BME280;46967;48.876;2.136;2024-02-21T04:54:27;101954.84;;;34.20;15.99
61086;BME280;46967;48.876;2.136;2024-02-21T04:56:52;101934.44;;;34.34;15.97
61086;BME280;46967;48.876;2.136;2024-02-21T04:59:18;101921.22;;;33.44;16.90
61086;BME280;46967;48.876;2.136;2024-02-21T05:01:43;101931.78;;;34.18;15.99
61086;BME280;46967;48.876;2.136;2024-02-21T05:04:08;101936.84;;;34.12;16.01
61086;BME280;46967;48.876;2.136;2024-02-21T05:06:40;101936.09;;;34.35;15.99
61086;BME280;46967;48.876;2.136;2024-02-21T05:09:07;101937.66;;;34.29;16.05
61086;BME280;46967;48.876;2.136;2024-02-21T05:11:34;101932.81;;;34.48;15.75
61086;BME280;46967;48.876;2.136;2024-02-21T05:13:59;101932.41;;;34.36;16.04
61086;BME280;46967;48.876;2.136;2024-02-21T05:16:24;101933.28;;;34.60;15.73
61086;BME280;46967;48.876;2.136;2024-02-21T05:18:50;101925.28;;;34.75;15.66
61086;BME280;46967;48.876;2.136;2024-02-21T05:21:15;101926.63;;;34.79;15.69
61086;BME280;46967;48.876;2.136;2024-02-21T05:23:40;101924.38;;;34.82;15.53
61086;BME280;46967;48.876;2.136;2024-02-21T05:26:06;101920.78;;;34.90;15.71
61086;BME280;46967;48.876;2.136;2024-02-21T05:28:31;101904.41;;;34.69;15.93
61086;BME280;46967;48.876;2.136;2024-02-21T05:30:57;101905.22;;;34.77;15.62
61086;BME280;46967;48.876;2.136;2024-02-21T05:33:22;101908.88;;;34.84;15.51
61086;BME280;46967;48.876;2.136;2024-02-21T05:35:48;101903.66;;;34.20;16.33
61086;BME280;46967;48.876;2.136;2024-02-21T05:38:14;101891.22;;;34.51;15.73
61086;BME280;46967;48.876;2.136;2024-02-21T05:40:39;101887.28;;;34.61;15.80
61086;BME280;46967;48.876;2.136;2024-02-21T05:43:05;101895.97;;;34.72;15.70
61086;BME280;46967;48.876;2.136;2024-02-21T05:45:30;101894.09;;;34.49;15.86
61086;BME280;46967;48.876;2.136;2024-02-21T05:47:55;101897.19;;;34.69;15.77
61086;BME280;46967;48.876;2.136;2024-02-21T05:50:22;101893.81;;;34.67;15.89
61086;BME280;46967;48.876;2.136;2024-02-21T05:52:51;101897.84;;;34.40;15.88
61086;BME280;46967;48.876;2.136;2024-02-21T05:55:16;101886.03;;;33.62;16.90
61086;BME280;46967;48.876;2.136;2024-02-21T05:57:41;101893.91;;;34.19;16.29
61086;BME280;46967;48.876;2.136;2024-02-21T06:00:07;101879.66;;;34.42;16.03
61086;BME280;46967;48.876;2.136;2024-02-21T06:02:33;101878.31;;;34.69;15.79
61086;BME280;46967;48.876;2.136;2024-02-21T06:04:58;101861.00;;;33.45;17.01
61086;BME280;46967;48.876;2.136;2024-02-21T06:07:23;101837.63;;;33.53;17.20
61086;BME280;46967;48.876;2.136;2024-02-21T06:09:49;101833.47;;;33.90;16.39
61086;BME280;46967;48.876;2.136;2024-02-21T06:12:14;101816.72;;;33.80;16.59
61086;BME280;46967;48.876;2.136;2024-02-21T06:14:39;101838.53;;;34.48;16.11
61086;BME280;46967;48.876;2.136;2024-02-21T06:17:04;101835.81;;;34.56;15.95
61086;BME280;46967;48.876;2.136;2024-02-21T06:19:30;101828.50;;;34.10;16.30
61086;BME280;46967;48.876;2.136;2024-02-21T06:21:55;101834.84;;;34.49;15.92
61086;BME280;46967;48.876;2.136;2024-02-21T06:24:20;101819.38;;;34.66;15.86
61086;BME280;46967;48.876;2.136;2024-02-21T06:26:46;101840.38;;;34.79;15.86
61086;BME280;46967;48.876;2.136;2024-02-21T06:29:12;101829.16;;;34.90;15.83
61086;BME280;46967;48.876;2.136;2024-02-21T06:31:39;101829.13;;;34.67;15.77
61086;BME280;46967;48.876;2.136;2024-02-21T06:34:05;101829.56;;;34.56;16.17
61086;BME280;46967;48.876;2.136;2024-02-21T06:36:30;101818.75;;;34.41;16.11
61086;BME280;46967;48.876;2.136;2024-02-21T06:38:55;101832.38;;;34.62;16.09
61086;BME280;46967;48.876;2.136;2024-02-21T06:41:21;101819.34;;;34.74;15.90
61086;BME280;46967;48.876;2.136;2024-02-21T06:43:47;101816.72;;;33.72;16.79
61086;BME280;46967;48.876;2.136;2024-02-21T06:46:28;101815.09;;;33.94;16.51
61086;BME280;46967;48.876;2.136;2024-02-21T06:48:54;101815.63;;;34.52;16.07
61086;BME280;46967;48.876;2.136;2024-02-21T06:51:21;101819.22;;;34.13;16.34
61086;BME280;46967;48.876;2.136;2024-02-21T06:53:47;101795.63;;;33.92;16.39
61086;BME280;46967;48.876;2.136;2024-02-21T06:56:12;101787.19;;;33.55;16.85
61086;BME280;46967;48.876;2.136;2024-02-21T06:58:38;101774.81;;;34.09;16.28
61086;BME280;46967;48.876;2.136;2024-02-21T07:01:03;101783.63;;;33.63;16.70
61086;BME280;46967;48.876;2.136;2024-02-21T07:03:28;101761.69;;;33.83;16.70
61086;BME280;46967;48.876;2.136;2024-02-21T07:05:54;101761.56;;;33.76;16.39
61086;BME280;46967;48.876;2.136;2024-02-21T07:08:19;101771.97;;;33.15;16.93
61086;BME280;46967;48.876;2.136;2024-02-21T07:10:44;101774.28;;;33.43;16.90
61086;BME280;46967;48.876;2.136;2024-02-21T07:13:10;101781.00;;;33.38;16.79
61086;BME280;46967;48.876;2.136;2024-02-21T07:15:35;101779.41;;;34.00;16.37
61086;BME280;46967;48.876;2.136;2024-02-21T07:18:01;101784.19;;;33.50;16.69
61086;BME280;46967;48.876;2.136;2024-02-21T07:20:27;101786.22;;;33.40;16.77
61086;BME280;46967;48.876;2.136;2024-02-21T07:22:52;101782.16;;;33.52;16.86
61086;BME280;46967;48.876;2.136;2024-02-21T07:25:18;101789.13;;;33.70;16.56
61086;BME280;46967;48.876;2.136;2024-02-21T07:27:44;101794.03;;;32.94;17.10
61086;BME280;46967;48.876;2.136;2024-02-21T07:30:10;101794.25;;;33.96;16.30
61086;BME280;46967;48.876;2.136;2024-02-21T07:32:35;101803.97;;;33.57;16.47
61086;BME280;46967;48.876;2.136;2024-02-21T07:35:00;101790.59;;;33.89;15.99
61086;BME280;46967;48.876;2.136;2024-02-21T07:37:26;101788.06;;;34.19;16.09
61086;BME280;46967;48.876;2.136;2024-02-21T07:39:51;101771.16;;;34.33;15.68
61086;BME280;46967;48.876;2.136;2024-02-21T07:42:16;101776.19;;;34.05;16.26
61086;BME280;46967;48.876;2.136;2024-02-21T07:44:42;101770.81;;;33.73;16.50
61086;BME280;46967;48.876;2.136;2024-02-21T07:47:07;101771.16;;;32.32;17.50
61086;BME280;46967;48.876;2.136;2024-02-21T07:49:33;101772.69;;;32.92;17.18
61086;BME280;46967;48.876;2.136;2024-02-21T07:52:00;101751.03;;;33.58;16.55
61086;BME280;46967;48.876;2.136;2024-02-21T07:54:26;101756.06;;;34.24;16.21
61086;BME280;46967;48.876;2.136;2024-02-21T07:56:51;101752.81;;;34.52;15.95
61086;BME280;46967;48.876;2.136;2024-02-21T07:59:16;101757.50;;;34.73;15.92
61086;BME280;46967;48.876;2.136;2024-02-21T08:01:42;101746.72;;;34.58;15.76
61086;BME280;46967;48.876;2.136;2024-02-21T08:04:09;101742.06;;;33.97;16.39
61086;BME280;46967;48.876;2.136;2024-02-21T08:06:35;101732.44;;;34.34;15.98
61086;BME280;46967;48.876;2.136;2024-02-21T08:09:00;101736.97;;;34.34;16.05
61086;BME280;46967;48.876;2.136;2024-02-21T08:11:26;101728.13;;;33.62;16.29
61086;BME280;46967;48.876;2.136;2024-02-21T08:13:51;101721.66;;;33.80;16.48
61086;BME280;46967;48.876;2.136;2024-02-21T08:16:16;101714.47;;;34.26;16.05
61086;BME280;46967;48.876;2.136;2024-02-21T08:18:44;101724.75;;;34.46;15.79
61086;BME280;46967;48.876;2.136;2024-02-21T08:21:09;101715.53;;;34.17;16.09
61086;BME280;46967;48.876;2.136;2024-02-21T08:23:34;101707.25;;;33.96;16.04
61086;BME280;46967;48.876;2.136;2024-02-21T08:26:03;101703.91;;;33.62;16.31
61086;BME280;46967;48.876;2.136;2024-02-21T08:28:28;101711.38;;;33.52;16.70
61086;BME280;46967;48.876;2.136;2024-02-21T08:30:53;101699.91;;;34.12;16.08
61086;BME280;46967;48.876;2.136;2024-02-21T08:33:19;101682.19;;;33.32;16.72
61086;BME280;46967;48.876;2.136;2024-02-21T08:35:49;101691.38;;;33.46;16.90
61086;BME280;46967;48.876;2.136;2024-02-21T08:38:14;101687.88;;;33.46;16.77
61086;BME280;46967;48.876;2.136;2024-02-21T08:40:40;101665.06;;;33.96;16.33
61086;BME280;46967;48.876;2.136;2024-02-21T08:43:05;101683.16;;;33.79;16.56
61086;BME280;46967;48.876;2.136;2024-02-21T08:45:31;101670.19;;;34.06;16.40
61086;BME280;46967;48.876;2.136;2024-02-21T08:47:56;101666.66;;;33.82;16.66
61086;BME280;46967;48.876;2.136;2024-02-21T08:50:21;101667.09;;;33.63;16.87
61086;BME280;46967;48.876;2.136;2024-02-21T08:52:46;101673.97;;;32.45;17.89
61086;BME280;46967;48.876;2.136;2024-02-21T08:55:12;101658.19;;;32.75;17.44
61086;BME280;46967;48.876;2.136;2024-02-21T08:57:37;101651.06;;;32.98;17.39
61086;BME280;46967;48.876;2.136;2024-02-21T09:00:04;101643.44;;;33.81;16.67
61086;BME280;46967;48.876;2.136;2024-02-21T09:02:39;101637.00;;;32.88;17.29
61086;BME280;46967;48.876;2.136;2024-02-21T09:05:05;101641.41;;;31.82;18.13
61086;BME280;46967;48.876;2.136;2024-02-21T09:07:30;101636.44;;;32.12;18.11
61086;BME280;46967;48.876;2.136;2024-02-21T09:09:56;101633.72;;;32.28;17.90
61086;BME280;46967;48.876;2.136;2024-02-21T09:12:21;101623.00;;;32.12;18.30
61086;BME280;46967;48.876;2.136;2024-02-21T09:14:47;101604.38;;;32.27;17.76
61086;BME280;46967;48.876;2.136;2024-02-21T09:17:16;101594.19;;;32.86;17.44
61086;BME280;46967;48.876;2.136;2024-02-21T09:19:42;101611.03;;;32.72;17.77
61086;BME280;46967;48.876;2.136;2024-02-21T09:22:08;101601.66;;;31.86;18.38
61086;BME280;46967;48.876;2.136;2024-02-21T09:24:33;101596.50;;;32.09;18.17
61086;BME280;46967;48.876;2.136;2024-02-21T09:26:59;101587.44;;;33.30;17.25
61086;BME280;46967;48.876;2.136;2024-02-21T09:29:25;101587.56;;;33.06;17.31
61086;BME280;46967;48.876;2.136;2024-02-21T09:31:50;101587.13;;;33.25;17.30
61086;BME280;46967;48.876;2.136;2024-02-21T09:34:16;101583.78;;;32.83;17.57
61086;BME280;46967;48.876;2.136;2024-02-21T09:36:41;101584.00;;;33.05;17.47
61086;BME280;46967;48.876;2.136;2024-02-21T09:39:07;101582.50;;;32.46;17.62
61086;BME280;46967;48.876;2.136;2024-02-21T09:41:36;101563.81;;;33.17;17.30
61086;BME280;46967;48.876;2.136;2024-02-21T09:44:05;101570.66;;;33.28;17.03
61086;BME280;46967;48.876;2.136;2024-02-21T09:49:32;101575.59;;;32.60;17.72
61086;BME280;46967;48.876;2.136;2024-02-21T09:52:01;101567.25;;;33.34;17.09
61086;BME280;46967;48.876;2.136;2024-02-21T09:54:28;101575.41;;;33.72;16.65
61086;BME280;46967;48.876;2.136;2024-02-21T09:56:53;101559.13;;;33.43;17.03
61086;BME280;46967;48.876;2.136;2024-02-21T09:59:18;101567.44;;;33.33;17.25
61086;BME280;46967;48.876;2.136;2024-02-21T10:01:44;101546.81;;;34.09;16.41
61086;BME280;46967;48.876;2.136;2024-02-21T10:04:10;101562.69;;;32.56;17.88
61086;BME280;46967;48.876;2.136;2024-02-21T10:06:35;101553.88;;;33.26;17.22
61086;BME280;46967;48.876;2.136;2024-02-21T10:09:03;101542.75;;;32.42;17.77
61086;BME280;46967;48.876;2.136;2024-02-21T10:11:28;101541.13;;;31.75;18.44
61086;BME280;46967;48.876;2.136;2024-02-21T10:14:04;101543.41;;;31.45;19.17
61086;BME280;46967;48.876;2.136;2024-02-21T10:16:33;101541.38;;;32.54;17.79
61086;BME280;46967;48.876;2.136;2024-02-21T10:18:58;101530.19;;;33.45;17.43
61086;BME280;46967;48.876;2.136;2024-02-21T10:21:24;101524.09;;;33.74;17.06
61086;BME280;46967;48.876;2.136;2024-02-21T10:23:50;101516.22;;;34.25;16.46
61086;BME280;46967;48.876;2.136;2024-02-21T10:26:17;101519.50;;;33.60;17.02
61086;BME280;46967;48.876;2.136;2024-02-21T10:28:43;101507.44;;;33.93;16.52
61086;BME280;46967;48.876;2.136;2024-02-21T10:31:11;101508.84;;;34.19;16.10
61086;BME280;46967;48.876;2.136;2024-02-21T10:33:37;101507.69;;;33.61;17.06
61086;BME280;46967;48.876;2.136;2024-02-21T10:36:10;101493.88;;;33.64;17.11
61086;BME280;46967;48.876;2.136;2024-02-21T10:38:37;101491.44;;;34.30;16.40
61086;BME280;46967;48.876;2.136;2024-02-21T10:41:04;101472.50;;;34.90;15.87
61086;BME280;46967;48.876;2.136;2024-02-21T10:43:36;101468.75;;;34.24;16.63
61086;BME280;46967;48.876;2.136;2024-02-21T10:46:03;101476.25;;;35.32;15.28
61086;BME280;46967;48.876;2.136;2024-02-21T10:48:43;101465.81;;;34.34;16.13
61086;BME280;46967;48.876;2.136;2024-02-21T10:51:19;101463.97;;;35.51;15.50
61086;BME280;46967;48.876;2.136;2024-02-21T10:56:36;101473.31;;;34.90;15.64
61086;BME280;46967;48.876;2.136;2024-02-21T10:59:07;101459.44;;;35.30;15.49
61086;BME280;46967;48.876;2.136;2024-02-21T11:01:33;101452.69;;;34.46;16.17
61086;BME280;46967;48.876;2.136;2024-02-21T11:04:05;101444.38;;;34.77;15.87
61086;BME280;46967;48.876;2.136;2024-02-21T11:06:32;101448.31;;;34.45;15.97
61086;BME280;46967;48.876;2.136;2024-02-21T11:11:29;101423.41;;;34.94;15.67
61086;BME280;46967;48.876;2.136;2024-02-21T11:14:08;101417.44;;;34.77;16.00
61086;BME280;46967;48.876;2.136;2024-02-21T11:16:41;101412.69;;;35.01;15.75
61086;BME280;46967;48.876;2.136;2024-02-21T11:19:08;101412.59;;;35.16;15.56
61086;BME280;46967;48.876;2.136;2024-02-21T11:21:37;101405.25;;;33.85;16.63
61086;BME280;46967;48.876;2.136;2024-02-21T11:24:03;101408.44;;;34.55;16.16
61086;BME280;46967;48.876;2.136;2024-02-21T11:26:30;101389.38;;;35.15;15.50
61086;BME280;46967;48.876;2.136;2024-02-21T11:29:05;101377.56;;;33.47;16.97
61086;BME280;46967;48.876;2.136;2024-02-21T11:31:44;101385.41;;;33.33;17.35
61086;BME280;46967;48.876;2.136;2024-02-21T11:34:13;101378.19;;;34.53;16.47
61086;BME280;46967;48.876;2.136;2024-02-21T11:36:52;101377.06;;;33.28;17.36
61086;BME280;46967;48.876;2.136;2024-02-21T11:39:26;101370.25;;;34.15;16.37
61086;BME280;46967;48.876;2.136;2024-02-21T11:42:06;101369.81;;;33.97;16.60
61086;BME280;46967;48.876;2.136;2024-02-21T11:44:33;101365.53;;;33.72;16.86
61086;BME280;46967;48.876;2.136;2024-02-21T11:46:59;101360.69;;;35.07;15.88
61086;BME280;46967;48.876;2.136;2024-02-21T11:49:25;101349.34;;;36.17;14.73
61086;BME280;46967;48.876;2.136;2024-02-21T11:52:01;101348.28;;;36.11;14.57
61086;BME280;46967;48.876;2.136;2024-02-21T11:54:31;101339.88;;;35.86;15.13
61086;BME280;46967;48.876;2.136;2024-02-21T11:56:57;101339.78;;;35.72;14.84
61086;BME280;46967;48.876;2.136;2024-02-21T11:59:22;101324.91;;;35.48;15.02
61086;BME280;46967;48.876;2.136;2024-02-21T12:01:48;101318.19;;;35.72;15.10
61086;BME280;46967;48.876;2.136;2024-02-21T12:04:14;101313.31;;;36.65;14.27
61086;BME280;46967;48.876;2.136;2024-02-21T12:06:39;101304.47;;;36.22;14.50
61086;BME280;46967;48.876;2.136;2024-02-21T12:09:07;101309.78;;;35.96;14.64
61086;BME280;46967;48.876;2.136;2024-02-21T12:11:35;101292.69;;;35.12;15.30
61086;BME280;46967;48.876;2.136;2024-02-21T12:14:02;101283.69;;;35.26;15.43
61086;BME280;46967;48.876;2.136;2024-02-21T12:16:35;101266.22;;;35.22;15.40
61086;BME280;46967;48.876;2.136;2024-02-21T12:19:04;101269.22;;;35.06;15.69
61086;BME280;46967;48.876;2.136;2024-02-21T12:21:30;101271.75;;;35.42;15.28
61086;BME280;46967;48.876;2.136;2024-02-21T12:23:58;101260.81;;;35.22;15.57
61086;BME280;46967;48.876;2.136;2024-02-21T12:26:23;101247.19;;;36.27;14.70
61086;BME280;46967;48.876;2.136;2024-02-21T12:28:49;101230.56;;;36.37;14.69
61086;BME280;46967;48.876;2.136;2024-02-21T12:31:14;101227.63;;;34.87;15.64
61086;BME280;46967;48.876;2.136;2024-02-21T12:33:42;101227.66;;;36.32;14.69
61086;BME280;46967;48.876;2.136;2024-02-21T12:36:07;101208.53;;;36.67;14.30
61086;BME280;46967;48.876;2.136;2024-02-21T12:38:34;101210.72;;;35.06;15.65
61086;BME280;46967;48.876;2.136;2024-02-21T12:40:59;101207.00;;;35.97;14.99
61086;BME280;46967;48.876;2.136;2024-02-21T12:43:25;101210.31;;;35.03;16.06
61086;BME280;46967;48.876;2.136;2024-02-21T12:45:51;101208.38;;;35.73;15.54
61086;BME280;46967;48.876;2.136;2024-02-21T12:48:16;101201.16;;;35.80;15.42
61086;BME280;46967;48.876;2.136;2024-02-21T12:50:48;101188.66;;;35.72;15.46
61086;BME280;46967;48.876;2.136;2024-02-21T12:53:16;101190.06;;;35.20;15.86